TBB weather

Dong Tac Airport
Tuy Hoa, Vinh Long Province, Vietnam

Public forecast

Using degrees Celsius for public forecast. Weather courtesy of forecast.io.

METAR (pilot weather report)

Closest report is Cam Ranh Airport, 63.5 nm (117.6 km) S. Retrieved 2019/03/24 14:30 UTC (20 minutes ago):

VVCR 241430Z 07009KT 9999 SCT015 29/24 Q1014 NOSIG

TAF (pilot weather forecast)

Closest forecast is Cam Ranh Airport, 63.5 nm (117.6 km) S. Retrieved 2019/03/24 12:00 UTC (3 hours ago):

TAF VVCR 241100Z 2412/2512 09008KT 9999 SCT015 BECMG 2420/2421 VRB02KT BECMG 2500/2501 10010KT